Time;durP1;ratioP1;P1;durP2;ratioP2;P2;SDS_P1;SDS_P2;PMS_P1;PMS_P2;Temp;Humidity;BMP_temperature;BMP_pressure;BME280_temperature;BME280_humidity;BME280_pressure;Samples;Min_cycle;Max_cycle;Signal;HPM_P1;HPM_P2
2022/07/02 00:02:20;;;;;;;1.30;1.20;;;15.40;99.90;;;;;;5034347;28;20225;-82
2022/07/02 00:04:53;;;;;;;1.50;1.40;;;15.50;99.90;;;;;;5034531;28;20210;-82
2022/07/02 00:07:23;;;;;;;1.27;1.27;;;15.50;99.90;;;;;;5034742;28;20225;-82
2022/07/02 00:09:55;;;;;;;2.35;1.40;;;15.40;99.90;;;;;;5034675;28;20222;-82
2022/07/02 00:12:27;;;;;;;1.10;1.10;;;15.50;99.90;;;;;;5034327;28;20292;-82
2022/07/02 00:14:57;;;;;;;1.17;1.17;;;15.50;99.90;;;;;;5034445;28;20230;-82
2022/07/02 00:17:27;;;;;;;1.35;1.27;;;15.50;99.90;;;;;;5034121;28;20242;-82
2022/07/02 00:19:59;;;;;;;1.15;1.02;;;15.50;99.90;;;;;;5034379;28;20241;-82
2022/07/02 00:22:29;;;;;;;1.00;1.00;;;15.50;99.90;;;;;;5034178;28;20231;-82
2022/07/02 00:24:57;;;;;;;1.00;1.00;;;15.50;99.90;;;;;;5034424;28;20298;-81
2022/07/02 00:27:28;;;;;;;1.17;1.10;;;15.40;99.90;;;;;;5034291;28;20210;-82
2022/07/02 00:30:00;;;;;;;1.15;1.15;;;15.50;99.90;;;;;;5034430;28;20207;-81
2022/07/02 00:32:32;;;;;;;6.00;1.25;;;15.50;99.90;;;;;;5033764;28;20310;-81
2022/07/02 00:35:06;;;;;;;1.10;1.10;;;15.40;99.90;;;;;;5034236;28;20214;-81
2022/07/02 00:37:35;;;;;;;0.95;0.95;;;15.40;99.90;;;;;;5033744;28;20249;-81
2022/07/02 00:40:03;;;;;;;0.95;0.95;;;15.40;99.90;;;;;;5033921;28;20293;-81
2022/07/02 00:42:32;;;;;;;1.48;1.10;;;15.50;99.90;;;;;;5033774;28;20257;-81
2022/07/02 00:45:01;;;;;;;1.50;1.00;;;15.50;99.90;;;;;;5034046;28;20294;-81
2022/07/02 00:47:32;;;;;;;1.00;1.00;;;15.50;99.90;;;;;;5033967;28;20206;-81
2022/07/02 00:50:04;;;;;;;1.10;1.10;;;15.50;99.90;;;;;;5034031;28;20256;-81
2022/07/02 00:52:32;;;;;;;1.42;1.35;;;15.50;99.90;;;;;;5033755;28;20225;-81
2022/07/02 00:55:01;;;;;;;1.95;0.95;;;15.50;99.90;;;;;;5034219;28;20269;-81
2022/07/02 00:57:32;;;;;;;1.00;1.00;;;15.50;99.90;;;;;;5034072;28;20282;-81
2022/07/02 01:00:00;;;;;;;1.38;1.30;;;15.50;99.90;;;;;;5034084;28;20241;-81
2022/07/02 01:02:30;;;;;;;1.20;1.20;;;15.50;99.90;;;;;;5032999;28;20234;-81
2022/07/02 01:05:00;;;;;;;1.10;1.10;;;15.40;99.90;;;;;;5033474;28;20293;-81
2022/07/02 01:07:30;;;;;;;1.30;1.20;;;15.40;99.90;;;;;;5033779;28;20285;-81
2022/07/02 01:10:16;;;;;;;1.20;1.10;;;15.40;99.90;;;;;;5033346;28;20281;-81
2022/07/02 01:12:46;;;;;;;0.80;0.80;;;15.40;99.90;;;;;;5033005;28;20285;-83
2022/07/02 01:15:16;;;;;;;1.33;1.20;;;15.40;99.90;;;;;;5033650;28;20266;-82
2022/07/02 01:17:44;;;;;;;1.40;1.30;;;15.40;99.90;;;;;;5033575;28;20292;-85
2022/07/02 01:20:14;;;;;;;1.10;0.95;;;15.40;99.90;;;;;;5033231;28;20202;-86
2022/07/02 01:22:44;;;;;;;1.23;1.20;;;15.30;99.90;;;;;;5033271;28;20294;-86
2022/07/02 01:25:15;;;;;;;0.88;0.88;;;15.30;99.90;;;;;;5033135;28;20230;-86
2022/07/02 01:27:43;;;;;;;1.23;1.23;;;15.40;99.90;;;;;;5033244;28;20240;-86
2022/07/02 01:30:12;;;;;;;1.00;1.00;;;15.30;99.90;;;;;;5032939;28;20297;-86
2022/07/02 01:32:41;;;;;;;0.85;0.85;;;15.30;99.90;;;;;;5033281;28;20252;-86
2022/07/02 01:35:10;;;;;;;0.95;0.95;;;15.30;99.90;;;;;;5033351;28;20203;-86
2022/07/02 01:37:39;;;;;;;1.42;1.33;;;15.30;99.90;;;;;;5033013;28;20242;-86
2022/07/02 01:40:10;;;;;;;1.42;1.27;;;15.30;99.90;;;;;;5032961;28;20287;-86
2022/07/02 01:42:39;;;;;;;0.98;0.98;;;15.30;99.90;;;;;;5032859;28;20246;-86
2022/07/02 01:45:08;;;;;;;1.10;1.10;;;15.30;99.90;;;;;;5032830;28;20233;-86
2022/07/02 01:47:36;;;;;;;1.00;1.00;;;15.30;99.90;;;;;;5033069;28;20198;-85
2022/07/02 01:50:06;;;;;;;1.50;1.40;;;15.30;99.90;;;;;;5032837;28;20214;-85
2022/07/02 01:52:35;;;;;;;1.17;1.02;;;15.30;99.90;;;;;;5032788;28;20224;-82
2022/07/02 01:55:05;;;;;;;1.27;1.27;;;15.30;99.90;;;;;;5032987;28;20293;-82
2022/07/02 01:57:36;;;;;;;0.95;0.93;;;15.30;99.90;;;;;;5033079;28;20294;-82
2022/07/02 02:00:06;;;;;;;1.83;1.50;;;15.30;99.90;;;;;;5033430;28;20198;-82
2022/07/02 02:02:35;;;;;;;1.20;1.20;;;15.30;99.90;;;;;;5032411;28;20230;-82
2022/07/02 02:05:05;;;;;;;1.38;1.30;;;15.30;99.90;;;;;;5032621;28;20256;-82
2022/07/02 02:07:34;;;;;;;1.65;1.55;;;15.30;99.90;;;;;;5032748;28;20202;-82
2022/07/02 02:10:02;;;;;;;1.30;1.20;;;15.30;99.90;;;;;;5032997;28;20222;-82
2022/07/02 02:12:30;;;;;;;4.40;1.42;;;15.30;99.90;;;;;;5032252;28;20281;-82
2022/07/02 02:15:00;;;;;;;1.58;1.25;;;15.30;99.90;;;;;;5032483;28;20301;-82
2022/07/02 02:17:28;;;;;;;1.67;1.58;;;15.30;99.90;;;;;;5032633;28;20306;-82
2022/07/02 02:19:57;;;;;;;1.52;1.25;;;15.30;99.90;;;;;;5036675;28;20206;-82
2022/07/02 02:22:25;;;;;;;2.05;1.77;;;15.30;99.90;;;;;;5036380;28;20268;-82
2022/07/02 02:24:54;;;;;;;2.15;1.73;;;15.30;99.90;;;;;;5036567;28;20226;-82
2022/07/02 02:27:22;;;;;;;1.42;1.33;;;15.30;99.90;;;;;;5036583;28;20218;-82
2022/07/02 02:29:51;;;;;;;1.80;1.70;;;15.30;99.90;;;;;;5036169;28;20230;-82
2022/07/02 02:32:20;;;;;;;1.42;1.33;;;15.30;99.90;;;;;;5036171;28;20230;-82
2022/07/02 02:34:49;;;;;;;1.83;1.73;;;15.30;99.90;;;;;;5036392;28;20211;-82
2022/07/02 02:37:17;;;;;;;1.52;1.42;;;15.20;99.90;;;;;;5036460;28;20249;-82
2022/07/02 02:39:45;;;;;;;2.47;1.77;;;15.20;99.90;;;;;;5036146;28;20245;-82
2022/07/02 02:42:14;;;;;;;2.22;1.70;;;15.20;99.90;;;;;;5036222;28;20226;-82
2022/07/02 02:44:42;;;;;;;1.67;1.58;;;15.20;99.90;;;;;;5036306;28;20226;-82
2022/07/02 02:47:11;;;;;;;5.72;2.03;;;15.20;99.90;;;;;;5036103;28;20206;-82
2022/07/02 02:49:40;;;;;;;1.70;1.60;;;15.20;99.90;;;;;;5036288;28;20222;-82
2022/07/02 02:52:09;;;;;;;1.73;1.63;;;15.20;99.90;;;;;;5035977;28;20253;-82
2022/07/02 02:54:37;;;;;;;2.13;1.92;;;15.20;99.90;;;;;;5036030;28;20202;-82
2022/07/02 02:57:06;;;;;;;2.15;1.95;;;15.20;99.90;;;;;;5035941;28;20237;-82
2022/07/02 02:59:35;;;;;;;1.60;1.50;;;15.20;99.90;;;;;;5036002;28;20298;-81
2022/07/02 03:02:03;;;;;;;2.72;2.00;;;15.20;99.90;;;;;;5035697;28;20228;-82
2022/07/02 03:04:32;;;;;;;2.45;2.25;;;15.20;99.90;;;;;;5036201;28;20207;-82
2022/07/02 03:07:01;;;;;;;2.15;1.98;;;15.20;99.90;;;;;;5035819;28;20293;-82
2022/07/02 03:09:30;;;;;;;2.55;2.38;;;15.10;99.90;;;;;;5035404;28;20225;-82
2022/07/02 03:11:58;;;;;;;2.25;1.80;;;15.10;99.90;;;;;;5034986;28;20297;-82
2022/07/02 03:14:26;;;;;;;2.03;1.92;;;15.10;99.90;;;;;;5035390;28;20230;-82
2022/07/02 03:16:54;;;;;;;3.90;2.00;;;15.00;99.90;;;;;;5035440;28;20233;-82
2022/07/02 03:19:23;;;;;;;2.97;2.28;;;15.10;99.90;;;;;;5035405;28;20226;-81
2022/07/02 03:21:51;;;;;;;2.05;1.95;;;15.00;99.90;;;;;;5035363;28;20226;-82
2022/07/02 03:24:21;;;;;;;1.80;1.70;;;15.00;99.90;;;;;;5035342;28;20211;-82
2022/07/02 03:26:49;;;;;;;2.38;2.17;;;15.00;99.90;;;;;;5035367;28;20332;-82
2022/07/02 03:29:24;;;;;;;1.95;1.85;;;15.00;99.90;;;;;;5034259;28;20229;-82
2022/07/02 03:31:52;;;;;;;1.73;1.63;;;15.00;99.90;;;;;;5034784;28;20226;-82
2022/07/02 03:34:21;;;;;;;2.53;2.28;;;15.00;99.90;;;;;;5035588;28;20206;-82
2022/07/02 03:36:49;;;;;;;5.47;1.67;;;15.00;99.90;;;;;;5035144;28;20233;-82
2022/07/02 03:39:17;;;;;;;1.60;1.50;;;15.00;99.90;;;;;;5035081;28;20223;-82
2022/07/02 03:41:47;;;;;;;1.70;1.60;;;15.00;99.90;;;;;;5034407;28;20233;-82
2022/07/02 03:44:16;;;;;;;1.20;1.20;;;15.00;99.90;;;;;;5035152;28;20924;-82
2022/07/02 03:46:44;;;;;;;1.33;1.33;;;15.10;99.90;;;;;;5035233;28;20199;-81
2022/07/02 03:49:12;;;;;;;2.22;2.03;;;15.00;99.90;;;;;;5035312;28;20198;-82
2022/07/02 03:51:41;;;;;;;1.58;1.48;;;15.10;99.90;;;;;;5034535;28;20229;-82
2022/07/02 03:54:09;;;;;;;2.25;1.42;;;15.10;99.90;;;;;;5034907;28;20318;-82
2022/07/02 03:56:37;;;;;;;2.13;1.80;;;15.10;99.90;;;;;;5034893;28;20213;-81
2022/07/02 03:59:07;;;;;;;1.50;1.40;;;15.10;99.90;;;;;;5034869;28;20305;-81
2022/07/02 04:01:35;;;;;;;1.10;1.10;;;15.10;99.90;;;;;;5035070;28;20293;-82
2022/07/02 04:04:04;;;;;;;1.45;1.35;;;15.10;99.90;;;;;;5034717;28;20261;-81
2022/07/02 04:06:32;;;;;;;1.08;1.05;;;15.20;99.90;;;;;;5035074;28;20210;-81
2022/07/02 04:09:00;;;;;;;2.28;1.95;;;15.20;99.90;;;;;;5034509;28;20294;-81
2022/07/02 04:11:29;;;;;;;1.40;1.30;;;15.20;99.90;;;;;;5034275;28;20237;-81
2022/07/02 04:13:57;;;;;;;1.70;1.33;;;15.20;99.90;;;;;;5034578;28;20318;-81
2022/07/02 04:16:27;;;;;;;4.05;1.00;;;15.30;99.90;;;;;;5034670;28;20256;-81
2022/07/02 04:18:55;;;;;;;2.65;1.13;;;15.30;99.90;;;;;;5034292;28;20218;-81
2022/07/02 04:21:41;;;;;;;1.35;1.30;;;15.30;99.90;;;;;;5034415;28;20294;-81
2022/07/02 04:24:09;;;;;;;1.48;1.38;;;15.30;99.90;;;;;;5034475;28;20232;-82
2022/07/02 04:26:37;;;;;;;1.38;1.27;;;15.30;99.90;;;;;;5034249;28;20281;-82
2022/07/02 04:29:06;;;;;;;1.20;1.20;;;15.40;99.90;;;;;;5034423;28;20206;-81
2022/07/02 04:31:35;;;;;;;1.23;1.23;;;15.40;99.90;;;;;;5033812;28;20233;-82
2022/07/02 04:34:04;;;;;;;1.98;1.63;;;15.40;99.90;;;;;;5034105;28;20291;-81
2022/07/02 04:36:32;;;;;;;1.05;1.05;;;15.40;99.90;;;;;;5034361;28;20211;-82
2022/07/02 04:39:02;;;;;;;1.30;1.20;;;15.50;99.90;;;;;;5033737;28;20218;-82
2022/07/02 04:41:31;;;;;;;1.58;1.48;;;15.50;99.90;;;;;;5033671;28;20207;-82
2022/07/02 04:43:59;;;;;;;1.33;1.30;;;15.50;99.90;;;;;;5033459;28;20246;-82
2022/07/02 04:46:28;;;;;;;1.80;1.70;;;15.50;99.90;;;;;;5034146;28;20217;-81
2022/07/02 04:48:57;;;;;;;1.70;1.60;;;15.60;99.90;;;;;;5033838;28;20202;-82
2022/07/02 04:51:26;;;;;;;1.55;1.45;;;15.60;99.90;;;;;;5033819;28;20270;-82
2022/07/02 04:53:58;;;;;;;1.10;1.10;;;15.70;99.90;;;;;;5033883;28;20230;-82
2022/07/02 04:56:27;;;;;;;1.35;1.25;;;15.70;99.90;;;;;;5033781;28;20289;-82
2022/07/02 04:58:56;;;;;;;1.63;1.52;;;15.60;99.90;;;;;;5033579;28;20221;-82
2022/07/02 05:01:24;;;;;;;1.27;1.20;;;15.70;99.90;;;;;;5033772;28;20258;-82
2022/07/02 05:03:53;;;;;;;1.48;1.38;;;15.80;99.90;;;;;;5033427;28;20291;-82
2022/07/02 05:06:23;;;;;;;1.60;1.50;;;15.80;99.90;;;;;;5033953;28;20210;-82
2022/07/02 05:08:53;;;;;;;1.30;1.30;;;15.90;99.90;;;;;;5033532;28;20285;-82
2022/07/02 05:11:21;;;;;;;1.83;1.70;;;15.90;99.90;;;;;;5032700;28;20289;-82
2022/07/02 05:13:50;;;;;;;0.98;0.93;;;15.90;99.90;;;;;;5033469;28;20313;-82
2022/07/02 05:16:18;;;;;;;1.30;1.30;;;15.90;99.90;;;;;;5033057;28;20289;-82
2022/07/02 05:18:47;;;;;;;6.40;1.40;;;16.00;99.90;;;;;;5033259;28;20280;-82
2022/07/02 05:21:15;;;;;;;1.30;1.20;;;16.00;99.90;;;;;;5033332;28;20206;-82
2022/07/02 05:23:45;;;;;;;1.40;1.30;;;16.00;99.90;;;;;;5033286;28;20261;-82
2022/07/02 05:26:13;;;;;;;1.45;1.35;;;16.10;99.90;;;;;;5033377;28;20222;-82
2022/07/02 05:28:42;;;;;;;1.40;1.30;;;16.10;99.90;;;;;;5033284;28;20297;-82
2022/07/02 05:31:10;;;;;;;1.02;1.02;;;16.10;99.90;;;;;;5033100;28;20206;-81
2022/07/02 05:33:38;;;;;;;1.35;1.25;;;16.10;99.90;;;;;;5032867;28;20234;-82
2022/07/02 05:36:07;;;;;;;1.10;1.10;;;16.20;99.90;;;;;;5033576;28;20303;-82
2022/07/02 05:38:35;;;;;;;0.80;0.80;;;16.30;99.90;;;;;;5033144;28;20215;-82
2022/07/02 05:41:06;;;;;;;1.67;1.58;;;16.40;99.90;;;;;;5032660;28;20213;-82
2022/07/02 05:43:35;;;;;;;1.55;1.45;;;16.50;99.90;;;;;;5032947;28;20234;-81
2022/07/02 05:46:03;;;;;;;1.10;1.10;;;16.50;99.90;;;;;;5032684;28;20206;-82
2022/07/02 05:48:32;;;;;;;0.98;0.98;;;16.50;99.90;;;;;;5032881;28;20214;-81
2022/07/02 05:51:00;;;;;;;1.00;1.00;;;16.50;99.90;;;;;;5032624;28;20288;-82
2022/07/02 05:53:28;;;;;;;1.05;0.98;;;16.60;99.90;;;;;;5032375;28;20227;-82
2022/07/02 05:55:57;;;;;;;1.73;1.63;;;16.70;99.90;;;;;;5032873;28;20207;-82
2022/07/02 05:58:26;;;;;;;2.10;1.33;;;16.70;99.90;;;;;;5032764;28;20298;-82
2022/07/02 06:00:55;;;;;;;1.02;1.02;;;16.70;99.90;;;;;;5032441;28;20340;-82
2022/07/02 06:03:23;;;;;;;1.38;1.30;;;16.70;99.90;;;;;;5032869;28;20317;-82
2022/07/02 06:08:39;;;;;;;1.52;1.02;;;16.90;99.90;;;;;;5032774;28;20249;-81
2022/07/02 06:11:08;;;;;;;1.17;1.08;;;16.90;99.90;;;;;;5032293;28;20207;-82
2022/07/02 06:13:37;;;;;;;1.45;1.38;;;16.90;99.90;;;;;;5032209;28;20291;-82
2022/07/02 06:16:06;;;;;;;3.28;1.27;;;17.00;99.90;;;;;;5032457;28;20202;-82
2022/07/02 06:18:34;;;;;;;3.88;1.20;;;17.00;99.90;;;;;;5032652;28;20202;-82
2022/07/02 06:21:03;;;;;;;1.42;1.23;;;17.10;99.90;;;;;;5031896;28;20225;-81
2022/07/02 06:23:31;;;;;;;1.77;1.67;;;17.20;99.90;;;;;;5032336;28;20228;-82
2022/07/02 06:25:59;;;;;;;1.70;1.60;;;17.30;99.90;;;;;;5032760;28;20297;-82
2022/07/02 06:28:28;;;;;;;1.77;1.67;;;17.30;99.90;;;;;;5032509;28;20237;-82
2022/07/02 06:30:58;;;;;;;2.03;1.80;;;17.30;99.90;;;;;;5032512;28;20210;-82
2022/07/02 06:33:26;;;;;;;1.38;1.27;;;17.30;99.90;;;;;;5032104;28;20293;-82
2022/07/02 06:35:54;;;;;;;1.35;1.25;;;17.30;99.90;;;;;;5032456;28;20214;-82
2022/07/02 06:38:22;;;;;;;1.60;1.50;;;17.50;99.90;;;;;;5032359;28;20215;-82
2022/07/02 06:40:53;;;;;;;1.55;1.45;;;17.70;99.90;;;;;;5032030;28;20314;-82
2022/07/02 06:43:23;;;;;;;1.00;1.00;;;17.80;99.90;;;;;;5032544;28;20258;-82
2022/07/02 06:45:52;;;;;;;1.90;1.63;;;17.90;99.90;;;;;;5032404;28;20210;-82
2022/07/02 06:48:22;;;;;;;1.08;1.08;;;18.00;99.90;;;;;;5032439;28;20253;-82
2022/07/02 06:50:50;;;;;;;1.50;1.40;;;18.10;99.90;;;;;;5031920;28;20234;-82
2022/07/02 06:53:18;;;;;;;1.13;1.10;;;18.20;99.90;;;;;;5032399;28;20222;-82
2022/07/02 06:55:46;;;;;;;1.50;1.40;;;18.20;99.90;;;;;;5032456;28;20376;-82
2022/07/02 06:58:15;;;;;;;1.58;1.48;;;18.30;99.90;;;;;;5032405;28;20231;-81
2022/07/02 07:00:43;;;;;;;1.15;1.08;;;18.50;99.90;;;;;;5031729;28;20250;-82
2022/07/02 07:03:11;;;;;;;1.20;1.10;;;18.50;99.90;;;;;;5032053;28;20325;-82
2022/07/02 07:05:46;;;;;;;1.10;1.10;;;18.50;99.90;;;;;;5035442;28;20241;-82
2022/07/02 07:08:14;;;;;;;0.98;0.98;;;18.60;99.90;;;;;;5035739;28;20210;-82
2022/07/02 07:10:46;;;;;;;1.30;1.15;;;18.80;99.90;;;;;;5035390;28;20213;-82
2022/07/02 07:13:14;;;;;;;1.00;1.00;;;19.10;99.90;;;;;;5035791;28;20222;-82
2022/07/02 07:15:42;;;;;;;1.05;1.05;;;19.30;99.90;;;;;;5035631;28;20296;-82
2022/07/02 07:18:11;;;;;;;1.17;1.10;;;19.50;99.90;;;;;;5035971;28;20241;-81
2022/07/02 07:20:40;;;;;;;1.58;1.48;;;19.80;99.90;;;;;;5035131;28;20318;-82
2022/07/02 07:23:09;;;;;;;1.00;1.00;;;20.30;99.90;;;;;;5035505;28;20257;-82
2022/07/02 07:25:37;;;;;;;1.50;1.40;;;20.90;99.90;;;;;;5035659;28;20237;-82
2022/07/02 07:28:12;;;;;;;0.90;0.90;;;21.10;99.90;;;;;;5035266;28;20201;-82
2022/07/02 07:30:42;;;;;;;1.05;1.05;;;21.60;99.90;;;;;;5035345;28;20206;-81
2022/07/02 07:33:10;;;;;;;1.15;1.15;;;21.90;99.90;;;;;;5035219;28;20321;-82
2022/07/02 07:35:39;;;;;;;3.25;1.30;;;22.30;99.90;;;;;;5035131;28;20293;-82
2022/07/02 07:38:08;;;;;;;1.33;1.30;;;22.50;99.90;;;;;;5035430;28;20285;-82
2022/07/02 07:40:37;;;;;;;1.15;1.15;;;22.90;99.90;;;;;;5034848;28;20226;-82
2022/07/02 07:43:05;;;;;;;1.17;1.17;;;23.20;99.90;;;;;;5035240;28;20306;-82
2022/07/02 07:45:34;;;;;;;0.98;0.98;;;24.40;99.90;;;;;;5034827;28;20203;-82
2022/07/02 07:48:02;;;;;;;1.00;1.00;;;24.90;99.90;;;;;;5034945;28;20241;-82
2022/07/02 07:50:31;;;;;;;1.92;1.23;;;25.20;99.90;;;;;;5034854;28;20234;-82
2022/07/02 07:52:59;;;;;;;0.90;0.90;;;25.60;99.90;;;;;;5035146;28;20314;-82
2022/07/02 07:55:29;;;;;;;1.00;1.00;;;26.10;99.90;;;;;;5034944;28;20237;-81
2022/07/02 07:57:57;;;;;;;1.20;1.20;;;25.70;99.90;;;;;;5034979;28;20230;-82
2022/07/02 08:00:25;;;;;;;1.20;1.10;;;25.70;99.40;;;;;;5034702;28;20215;-82
2022/07/02 08:02:54;;;;;;;0.93;0.93;;;26.80;98.90;;;;;;5034597;28;20244;-82
2022/07/02 08:05:22;;;;;;;1.17;1.15;;;27.40;95.90;;;;;;5034795;28;20216;-82
2022/07/02 08:07:50;;;;;;;2.95;1.05;;;27.00;95.60;;;;;;5034703;28;20206;-82
2022/07/02 08:10:19;;;;;;;1.02;1.02;;;26.80;94.80;;;;;;5032081;28;20281;-82
2022/07/02 08:12:48;;;;;;;1.10;1.10;;;27.60;95.70;;;;;;5032294;28;20230;-82
2022/07/02 08:15:17;;;;;;;1.27;1.20;;;27.80;93.40;;;;;;5032063;28;20275;-82
2022/07/02 08:17:45;;;;;;;1.27;1.17;;;28.40;92.40;;;;;;5031985;28;20301;-82
2022/07/02 08:20:14;;;;;;;0.70;0.70;;;28.60;91.20;;;;;;5032086;28;20214;-82
2022/07/02 08:22:43;;;;;;;1.73;1.10;;;28.30;91.20;;;;;;5032393;28;20250;-83
2022/07/02 08:25:12;;;;;;;1.27;1.17;;;28.60;90.70;;;;;;5032384;28;20245;-82
2022/07/02 08:27:40;;;;;;;1.10;1.02;;;29.00;90.20;;;;;;5032645;28;20225;-82
2022/07/02 08:30:11;;;;;;;1.70;1.38;;;29.00;90.30;;;;;;5031760;28;20245;-82
2022/07/02 08:32:41;;;;;;;1.13;1.00;;;28.90;88.00;;;;;;5032120;28;20222;-82
2022/07/02 08:35:13;;;;;;;1.00;1.00;;;28.80;88.60;;;;;;5032376;28;20215;-82
2022/07/02 08:37:45;;;;;;;1.25;1.15;;;28.60;90.10;;;;;;5031989;28;20218;-83
2022/07/02 08:40:13;;;;;;;1.27;1.17;;;28.40;88.50;;;;;;5031455;28;20238;-83
2022/07/02 08:42:43;;;;;;;1.48;1.15;;;28.50;89.20;;;;;;5031400;28;20318;-83
2022/07/02 08:45:13;;;;;;;1.40;1.20;;;29.30;87.70;;;;;;5031955;28;20218;-82
2022/07/02 08:47:43;;;;;;;1.00;1.00;;;29.00;85.80;;;;;;5031888;28;20293;-82
2022/07/02 08:50:12;;;;;;;1.30;1.20;;;28.30;89.70;;;;;;5031564;28;20268;-80
2022/07/02 08:52:41;;;;;;;0.82;0.82;;;28.50;86.40;;;;;;5032245;28;20292;-83
2022/07/02 08:55:14;;;;;;;1.80;1.17;;;28.70;85.80;;;;;;5032402;28;20223;-81
2022/07/02 08:57:43;;;;;;;0.98;0.98;;;28.60;86.40;;;;;;5031940;28;20210;-81
2022/07/02 09:00:14;;;;;;;0.80;0.80;;;28.80;85.40;;;;;;5032003;28;20238;-81
2022/07/02 09:02:44;;;;;;;1.00;1.00;;;28.70;85.80;;;;;;5031266;28;20234;-81
2022/07/02 09:05:13;;;;;;;1.08;1.08;;;28.40;86.00;;;;;;5031880;28;20209;-81
2022/07/02 09:07:42;;;;;;;0.90;0.90;;;28.10;89.00;;;;;;5031476;28;20289;-81
2022/07/02 09:10:11;;;;;;;1.38;1.27;;;28.10;85.40;;;;;;5031303;28;20206;-80
2022/07/02 09:12:41;;;;;;;0.80;0.80;;;29.40;85.30;;;;;;5031254;28;20218;-80
2022/07/02 09:15:11;;;;;;;1.35;1.20;;;29.90;82.20;;;;;;5031468;28;20202;-80
2022/07/02 09:17:43;;;;;;;1.23;1.23;;;30.40;81.60;;;;;;5031629;28;20218;-80
2022/07/02 09:20:12;;;;;;;2.42;1.10;;;30.10;83.50;;;;;;5031029;28;20301;-81
2022/07/02 09:22:43;;;;;;;0.82;0.82;;;29.60;83.60;;;;;;5031000;28;20321;-81
2022/07/02 09:25:14;;;;;;;0.93;0.93;;;29.40;82.00;;;;;;5031265;28;20234;-81
2022/07/02 09:27:43;;;;;;;0.70;0.70;;;29.70;83.90;;;;;;5030215;28;20337;-82
2022/07/02 09:30:15;;;;;;;1.33;1.23;;;29.70;80.80;;;;;;5030691;28;20256;-81
2022/07/02 09:32:46;;;;;;;1.00;1.00;;;30.10;79.60;;;;;;5031062;28;20222;-81
2022/07/02 09:35:19;;;;;;;3.47;1.10;;;29.80;79.10;;;;;;5030992;28;20248;-81
2022/07/02 09:37:49;;;;;;;0.90;0.90;;;30.10;79.10;;;;;;5031116;28;20242;-81
2022/07/02 09:40:20;;;;;;;1.70;1.58;;;30.40;78.30;;;;;;5031078;28;20248;-82
2022/07/02 09:42:49;;;;;;;1.30;1.20;;;31.20;78.70;;;;;;5032833;28;20225;-82
2022/07/02 09:45:18;;;;;;;1.33;1.23;;;31.00;76.60;;;;;;5032906;28;20289;-82
2022/07/02 09:47:49;;;;;;;1.15;1.02;;;31.20;79.40;;;;;;5032835;28;20240;-82
2022/07/02 09:50:20;;;;;;;1.48;1.38;;;31.50;77.00;;;;;;5032642;28;20205;-82
2022/07/02 09:52:49;;;;;;;0.90;0.90;;;31.60;75.20;;;;;;5033141;28;20248;-81
2022/07/02 09:55:23;;;;;;;0.90;0.90;;;31.80;74.90;;;;;;5033400;28;20225;-81
2022/07/02 09:57:53;;;;;;;1.02;1.02;;;31.50;76.60;;;;;;5033002;28;20233;-81
2022/07/02 10:00:23;;;;;;;4.68;1.30;;;31.70;73.30;;;;;;5032592;28;20225;-81
2022/07/02 10:02:55;;;;;;;2.70;1.15;;;31.90;73.30;;;;;;5032293;28;20284;-81
2022/07/02 10:05:26;;;;;;;1.20;1.10;;;30.80;72.60;;;;;;5032660;28;20214;-81
2022/07/02 10:07:55;;;;;;;1.90;1.60;;;30.80;72.50;;;;;;5032413;28;20198;-80
2022/07/02 10:10:30;;;;;;;0.93;0.93;;;30.50;72.80;;;;;;5032422;28;20243;-81
2022/07/02 10:12:58;;;;;;;0.90;0.90;;;30.40;72.90;;;;;;5032796;28;20237;-82
2022/07/02 10:15:31;;;;;;;1.48;1.38;;;30.70;75.60;;;;;;5032200;28;20271;-81
2022/07/02 10:18:02;;;;;;;0.80;0.80;;;31.30;74.10;;;;;;5032492;28;20208;-81
2022/07/02 10:20:31;;;;;;;1.60;1.50;;;31.80;72.60;;;;;;5032396;28;20198;-81
2022/07/02 10:23:01;;;;;;;1.23;1.10;;;31.80;71.50;;;;;;5032349;28;20222;-81
2022/07/02 10:25:31;;;;;;;1.13;1.05;;;32.10;72.60;;;;;;5032837;28;20292;-81
2022/07/02 10:28:00;;;;;;;1.10;1.10;;;31.80;68.40;;;;;;5032493;28;20210;-81
2022/07/02 10:30:30;;;;;;;1.05;1.05;;;31.30;69.10;;;;;;5032039;28;20233;-81
2022/07/02 10:33:07;;;;;;;1.08;1.08;;;30.40;71.50;;;;;;5032189;28;20225;-81
2022/07/02 10:35:38;;;;;;;1.00;1.00;;;30.20;70.70;;;;;;5032146;28;20198;-81
2022/07/02 10:38:07;;;;;;;1.15;1.15;;;30.20;71.50;;;;;;5032258;28;20285;-81
2022/07/02 10:40:47;;;;;;;1.20;1.00;;;30.30;72.30;;;;;;5035606;28;20237;-82
2022/07/02 10:43:17;;;;;;;1.67;1.00;;;30.90;72.90;;;;;;5035865;28;20318;-81
2022/07/02 10:45:46;;;;;;;1.33;1.20;;;30.80;72.80;;;;;;5036253;28;20293;-81
2022/07/02 10:48:16;;;;;;;1.10;1.00;;;31.10;74.60;;;;;;5035925;28;20237;-81
2022/07/02 10:50:46;;;;;;;1.60;1.50;;;31.60;72.50;;;;;;5036137;28;20293;-81
2022/07/02 10:53:17;;;;;;;1.13;1.08;;;32.20;68.60;;;;;;5036014;28;20288;-82
2022/07/02 10:56:21;;;;;;;1.10;1.10;;;31.70;67.20;;;;;;4975369;28;20354;-81
2022/07/02 10:58:49;;;;;;;1.63;1.20;;;31.20;70.00;;;;;;4975217;28;20291;-82
2022/07/02 11:01:20;;;;;;;1.02;1.00;;;31.50;69.40;;;;;;4975251;28;20291;-81
2022/07/02 11:03:56;;;;;;;1.23;1.13;;;31.40;65.70;;;;;;4974774;28;20232;-82
2022/07/02 11:06:25;;;;;;;1.63;1.00;;;31.60;67.50;;;;;;4975258;28;20208;-81
2022/07/02 11:08:56;;;;;;;0.90;0.90;;;31.60;66.00;;;;;;4974978;28;20332;-81
2022/07/02 11:11:53;;;;;;;1.08;1.08;;;31.60;66.00;;;;;;4974122;28;20204;-82
2022/07/02 11:14:26;;;;;;;0.93;0.93;;;32.20;66.60;;;;;;4974765;28;20271;-82
2022/07/02 11:17:15;;;;;;;0.88;0.88;;;32.60;65.80;;;;;;4974030;28;20287;-82
2022/07/02 11:19:52;;;;;;;1.30;1.15;;;32.90;65.10;;;;;;4974972;28;20235;-81
2022/07/02 11:22:21;;;;;;;1.08;1.05;;;32.80;64.50;;;;;;4974414;28;20319;-82
2022/07/02 11:24:54;;;;;;;1.25;1.25;;;32.80;64.50;;;;;;4974940;28;20207;-82
2022/07/02 11:27:44;;;;;;;1.30;1.20;;;32.80;65.70;;;;;;5008480;28;20209;-81
2022/07/02 11:30:28;;;;;;;1.17;1.17;;;32.90;64.50;;;;;;5033614;28;20300;-82
2022/07/02 11:32:56;;;;;;;1.85;1.33;;;32.90;63.30;;;;;;5035258;28;20217;-82
2022/07/02 11:35:51;;;;;;;1.17;1.08;;;33.00;64.10;;;;;;4993746;28;20270;-82
2022/07/02 11:38:20;;;;;;;1.10;1.10;;;33.50;62.90;;;;;;4978083;28;20266;-82
2022/07/02 11:40:48;;;;;;;1.92;1.52;;;33.60;62.10;;;;;;4993666;28;20286;-82
2022/07/02 11:43:34;;;;;;;1.27;1.23;;;33.70;62.00;;;;;;4992718;28;20227;-82
2022/07/02 11:46:02;;;;;;;1.63;1.50;;;33.40;61.30;;;;;;4993712;28;20207;-82
2022/07/02 11:48:30;;;;;;;1.17;1.15;;;33.40;61.80;;;;;;4993633;28;20306;-82
2022/07/02 11:51:01;;;;;;;1.50;1.40;;;33.50;59.70;;;;;;4992070;28;20235;-82
2022/07/02 11:53:36;;;;;;;1.42;1.33;;;33.00;59.30;;;;;;4993718;28;20251;-82
2022/07/02 11:56:08;;;;;;;1.45;1.20;;;32.80;62.10;;;;;;4993668;28;20212;-82
2022/07/02 11:58:46;;;;;;;1.85;1.45;;;33.00;61.70;;;;;;4993853;28;20231;-82
2022/07/02 12:01:22;;;;;;;1.20;1.20;;;33.30;61.70;;;;;;4993222;28;20204;-82
2022/07/02 12:03:52;;;;;;;1.55;1.45;;;33.60;59.80;;;;;;4992919;28;20227;-82
2022/07/02 12:06:24;;;;;;;1.60;1.50;;;33.50;58.70;;;;;;5004178;28;20210;-82
2022/07/02 12:08:53;;;;;;;1.75;1.48;;;33.10;58.80;;;;;;5034830;28;20221;-82
2022/07/02 12:11:23;;;;;;;1.08;1.08;;;33.10;60.90;;;;;;5034175;28;20234;-82
2022/07/02 12:13:52;;;;;;;1.27;1.20;;;33.10;60.30;;;;;;5034189;28;20297;-82
2022/07/02 12:16:22;;;;;;;1.58;1.48;;;32.70;58.70;;;;;;5034492;28;20290;-82
2022/07/02 12:19:01;;;;;;;1.45;1.35;;;32.50;58.80;;;;;;5034978;28;20210;-82
2022/07/02 12:21:36;;;;;;;1.20;1.10;;;32.40;59.40;;;;;;5034012;28;20298;-82
2022/07/02 12:24:06;;;;;;;1.65;1.55;;;32.50;60.30;;;;;;5034205;28;20229;-82
2022/07/02 12:26:35;;;;;;;1.05;1.05;;;32.50;62.30;;;;;;5034178;28;20234;-83
2022/07/02 12:31:53;;;;;;;0.90;0.90;;;32.10;59.80;;;;;;5033790;28;20297;-83
2022/07/02 12:34:24;;;;;;;1.30;1.20;;;32.20;60.00;;;;;;5033927;28;20203;-83
2022/07/02 12:36:55;;;;;;;1.85;1.50;;;32.50;61.00;;;;;;5034208;28;20234;-83
2022/07/02 12:39:25;;;;;;;1.35;1.25;;;32.60;59.70;;;;;;5034228;28;20230;-83
2022/07/02 12:41:53;;;;;;;1.67;1.20;;;32.60;61.20;;;;;;5033800;28;20270;-83
2022/07/02 12:44:23;;;;;;;1.60;1.20;;;32.60;61.40;;;;;;5033749;28;20309;-83
2022/07/02 12:46:53;;;;;;;0.93;0.93;;;32.90;60.00;;;;;;5033867;28;20202;-83
2022/07/02 12:49:23;;;;;;;0.95;0.95;;;32.90;58.70;;;;;;5034122;28;20206;-83
2022/07/02 12:52:01;;;;;;;1.40;1.30;;;32.60;58.10;;;;;;5033937;28;20289;-83
2022/07/02 12:54:36;;;;;;;2.28;1.70;;;32.40;57.10;;;;;;5033703;28;20289;-83
2022/07/02 12:57:13;;;;;;;0.98;0.98;;;32.10;58.40;;;;;;5033779;28;20218;-83
2022/07/02 12:59:42;;;;;;;1.50;1.40;;;31.70;58.30;;;;;;5033941;28;20229;-83
2022/07/02 13:02:16;;;;;;;0.90;0.90;;;31.20;58.10;;;;;;5033232;28;20266;-83
2022/07/02 13:04:45;;;;;;;3.35;1.02;;;30.90;58.60;;;;;;5033374;28;20225;-84
2022/07/02 13:07:15;;;;;;;0.98;0.98;;;30.70;59.30;;;;;;5034270;28;20289;-84
2022/07/02 13:09:45;;;;;;;1.10;1.10;;;30.50;60.60;;;;;;5033578;28;20256;-84